Time;durP1;ratioP1;P1;durP2;ratioP2;P2;SDS_P1;SDS_P2;PMS_P1;PMS_P2;Temp;Humidity;BMP_temperature;BMP_pressure;BME280_temperature;BME280_humidity;BME280_pressure;Samples;Min_cycle;Max_cycle;Signal;HPM_P1;HPM_P2
2022/07/04 00:00:14;;;;;;;0.55;0.30;;;;;;;22.81;40.52;101987.06;16143191;19;129272;-55
2022/07/04 00:05:36;;;;;;;3.13;0.30;;;;;;;22.80;40.81;101980.63;16143669;19;130185;-57
2022/07/04 00:10:58;;;;;;;0.90;0.30;;;;;;;22.79;40.13;101989.25;16141952;19;129437;-57
2022/07/04 00:16:20;;;;;;;0.50;0.10;;;;;;;22.78;40.21;101979.19;16141206;19;129871;-55
2022/07/04 00:21:42;;;;;;;0.17;0.10;;;;;;;22.77;40.50;101969.13;16143529;19;130184;-56
2022/07/04 00:27:04;;;;;;;0.90;0.10;;;;;;;22.76;40.51;101978.59;16140674;19;129132;-58
2022/07/04 00:32:26;;;;;;;1.08;0.30;;;;;;;22.74;40.24;101962.97;16144251;19;129482;-57
2022/07/04 00:37:48;;;;;;;1.17;0.10;;;;;;;22.72;40.45;101967.06;16144302;19;129771;-57
2022/07/04 00:43:10;;;;;;;0.13;0.10;;;;;;;22.71;40.74;101955.06;16140495;19;130834;-54
2022/07/04 00:48:32;;;;;;;0.63;0.10;;;;;;;22.70;40.61;101953.38;16137277;19;132031;-56
2022/07/04 00:53:55;;;;;;;0.30;0.10;;;;;;;22.71;40.45;101952.28;16141241;19;130319;-56
2022/07/04 00:59:17;;;;;;;0.32;0.13;;;;;;;22.67;40.32;101945.50;16141239;19;130242;-53
2022/07/04 01:04:39;;;;;;;0.57;0.20;;;;;;;22.67;40.59;101951.09;16140270;19;129341;-57
2022/07/04 01:10:03;;;;;;;1.63;0.20;;;;;;;22.66;40.23;101945.78;16133650;19;130165;-56
2022/07/04 01:15:25;;;;;;;0.40;0.15;;;;;;;22.65;40.74;101947.69;16140203;19;130161;-55
2022/07/04 01:20:46;;;;;;;0.93;0.15;;;;;;;22.64;40.63;101948.81;16139435;19;130127;-55
2022/07/04 01:26:08;;;;;;;0.38;0.10;;;;;;;22.63;40.51;101937.88;16139031;19;129007;-56
2022/07/04 01:31:30;;;;;;;1.15;0.40;;;;;;;22.62;40.49;101936.19;16139620;19;131579;-57
2022/07/04 01:36:52;;;;;;;0.05;0.05;;;;;;;22.60;40.61;101939.25;16133221;19;129523;-56
2022/07/04 01:42:14;;;;;;;0.70;0.22;;;;;;;22.59;40.39;101923.59;16133563;19;129549;-58
2022/07/04 01:47:39;;;;;;;0.30;0.20;;;;;;;22.57;40.34;101920.22;16130185;19;129123;-57
2022/07/04 01:53:02;;;;;;;0.25;0.10;;;;;;;22.57;40.59;101914.63;16138519;19;129625;-57
2022/07/04 01:58:23;;;;;;;0.20;0.10;;;;;;;22.55;40.77;101927.97;16137497;19;128938;-58
2022/07/04 02:03:45;;;;;;;2.55;0.10;;;;;;;22.53;40.63;101919.88;16138762;19;129092;-58
2022/07/04 02:09:16;;;;;;;0.63;0.20;;;;;;;22.53;40.37;101930.16;16134651;19;131530;-58
2022/07/04 02:14:41;;;;;;;0.15;0.10;;;;;;;22.52;40.51;101928.50;16133585;19;130078;-58
2022/07/04 02:20:04;;;;;;;0.47;0.10;;;;;;;22.51;40.48;101940.75;16133305;19;131174;-58
2022/07/04 02:25:26;;;;;;;0.25;0.10;;;;;;;22.50;40.30;101936.25;16135057;19;129484;-58
2022/07/04 02:30:48;;;;;;;1.13;0.20;;;;;;;22.48;40.66;101932.88;16133371;19;129358;-57
2022/07/04 02:36:10;;;;;;;1.15;0.20;;;;;;;22.49;40.33;101937.34;16135248;19;130508;-56
2022/07/04 02:41:33;;;;;;;0.35;0.10;;;;;;;22.47;40.79;101947.91;16130180;19;129854;-57
2022/07/04 02:46:55;;;;;;;0.13;0.00;;;;;;;22.46;40.57;101943.41;16132616;19;129079;-58
2022/07/04 02:52:16;;;;;;;0.00;0.00;;;;;;;22.44;40.60;101944.50;16134700;19;129375;-57
2022/07/04 02:57:38;;;;;;;0.10;0.10;;;;;;;22.44;40.38;101950.09;16132772;19;131904;-58
2022/07/04 03:03:00;;;;;;;0.73;0.10;;;;;;;22.43;40.66;101953.97;16134195;19;129363;-58
2022/07/04 03:08:22;;;;;;;0.25;0.20;;;;;;;22.41;40.47;101964.50;16127913;19;130776;-57
2022/07/04 03:13:44;;;;;;;0.85;0.10;;;;;;;22.41;40.71;101980.41;16132640;19;129306;-57
2022/07/04 03:19:06;;;;;;;0.20;0.00;;;;;;;22.40;40.68;101973.97;16131476;19;129344;-58
2022/07/04 03:24:28;;;;;;;0.20;0.10;;;;;;;22.40;40.84;101985.13;16133423;19;129294;-56
2022/07/04 03:29:50;;;;;;;0.20;0.10;;;;;;;22.40;40.76;101987.06;16129537;19;129825;-58
2022/07/04 03:35:12;;;;;;;0.32;0.10;;;;;;;22.39;40.68;101988.16;16145880;19;129079;-58
2022/07/04 03:40:35;;;;;;;0.20;0.00;;;;;;;22.36;41.03;101974.72;16146801;19;129529;-58
2022/07/04 03:45:57;;;;;;;0.10;0.10;;;;;;;22.35;40.93;101989.75;16145890;19;128847;-58
2022/07/04 03:51:18;;;;;;;0.20;0.10;;;;;;;22.34;40.64;101988.91;16146556;19;128893;-58
2022/07/04 03:56:40;;;;;;;0.15;0.10;;;;;;;22.34;40.90;101991.69;16146681;19;130439;-58
2022/07/04 04:02:02;;;;;;;0.38;0.20;;;;;;;22.35;40.65;102000.91;16146660;19;129400;-57
2022/07/04 04:07:24;;;;;;;0.52;0.17;;;;;;;22.36;40.66;102002.59;16139993;19;131194;-57
2022/07/04 04:12:46;;;;;;;0.47;0.10;;;;;;;22.39;40.81;102016.06;16139721;19;129850;-54
2022/07/04 04:18:08;;;;;;;0.20;0.10;;;;;;;22.42;40.53;102021.13;16144293;19;130133;-57
2022/07/04 04:23:30;;;;;;;0.82;0.10;;;;;;;22.44;40.66;102022.59;16145287;19;129403;-57
2022/07/04 04:28:52;;;;;;;0.20;0.10;;;;;;;22.48;40.24;102022.09;16139432;19;129710;-56
2022/07/04 04:34:14;;;;;;;2.55;0.20;;;;;;;22.52;40.50;102026.09;16137509;19;129598;-56
2022/07/04 04:39:36;;;;;;;0.52;0.20;;;;;;;22.56;40.42;102019.78;16142444;19;129552;-56
2022/07/04 04:44:57;;;;;;;0.17;0.17;;;;;;;22.61;40.26;102005.09;16134475;19;129649;-56
2022/07/04 04:50:20;;;;;;;0.40;0.20;;;;;;;22.66;40.33;102002.38;16136304;19;131593;-56
2022/07/04 04:55:42;;;;;;;0.30;0.20;;;;;;;22.71;40.23;102010.00;16142635;19;130173;-58
2022/07/04 05:01:04;;;;;;;0.40;0.17;;;;;;;22.76;40.02;101995.34;16139934;19;131884;-56
2022/07/04 05:06:46;;;;;;;0.10;0.08;;;;;;;22.81;39.94;102004.66;16139643;19;129476;-58
2022/07/04 05:12:07;;;;;;;0.40;0.20;;;;;;;22.86;40.27;101995.53;16139821;19;130214;-57
2022/07/04 05:17:29;;;;;;;0.28;0.10;;;;;;;22.92;40.20;101990.94;16139745;19;129503;-57
2022/07/04 05:22:51;;;;;;;0.30;0.10;;;;;;;22.96;40.01;102000.47;16138270;19;130311;-57
2022/07/04 05:28:13;;;;;;;1.05;0.20;;;;;;;22.99;39.97;101995.25;16135078;19;129453;-58
2022/07/04 05:33:35;;;;;;;0.60;0.20;;;;;;;23.04;40.14;101995.34;16136814;19;130802;-55
2022/07/04 05:38:57;;;;;;;0.52;0.28;;;;;;;23.10;39.67;102003.81;16137901;19;131881;-57
2022/07/04 05:44:19;;;;;;;3.78;0.20;;;;;;;23.13;40.25;102006.13;16133503;19;130913;-58
2022/07/04 05:49:41;;;;;;;0.73;0.20;;;;;;;23.18;39.95;102009.84;16134176;19;130176;-56
2022/07/04 05:55:03;;;;;;;1.10;0.20;;;;;;;23.24;39.80;102009.91;16137693;19;130932;-56
2022/07/04 06:00:25;;;;;;;5.22;0.28;;;;;;;23.29;40.21;102012.81;16136102;19;129469;-57
2022/07/04 06:05:47;;;;;;;2.40;0.40;;;;;;;23.32;39.85;102009.53;16135390;19;129412;-57
2022/07/04 06:11:09;;;;;;;2.60;0.40;;;;;;;23.36;39.76;102021.88;16128220;19;129834;-55
2022/07/04 06:16:30;;;;;;;1.40;0.40;;;;;;;23.39;39.57;102014.91;16133525;19;128965;-57
2022/07/04 06:21:52;;;;;;;2.75;0.60;;;;;;;23.42;39.42;102020.00;16135912;19;129348;-56
2022/07/04 06:27:14;;;;;;;1.13;0.40;;;;;;;23.42;39.22;102020.00;16131714;19;130091;-58
2022/07/04 06:32:45;;;;;;;2.10;0.50;;;;;;;23.44;39.14;102023.41;16131307;19;129130;-57
2022/07/04 06:38:07;;;;;;;3.97;0.68;;;;;;;23.44;39.20;102021.47;16132471;19;129533;-58
2022/07/04 06:43:29;;;;;;;3.65;0.55;;;;;;;23.46;39.40;102022.03;16129968;19;130312;-57
2022/07/04 06:48:51;;;;;;;1.67;0.75;;;;;;;23.47;39.13;102012.56;16123825;19;129358;-57
2022/07/04 06:54:13;;;;;;;1.63;0.60;;;;;;;23.48;38.97;102014.25;16129169;19;130043;-56
2022/07/04 06:59:35;;;;;;;2.33;0.47;;;;;;;23.50;39.08;102008.44;16128932;19;129336;-55
2022/07/04 07:04:57;;;;;;;1.45;0.47;;;;;;;23.52;39.10;102009.00;16129866;19;130018;-58
2022/07/04 07:10:19;;;;;;;4.63;0.50;;;;;;;23.55;39.07;102013.25;16140901;19;129788;-55
2022/07/04 07:15:41;;;;;;;1.52;0.40;;;;;;;23.56;39.10;102015.78;16146105;19;132124;-56
2022/07/04 07:21:03;;;;;;;1.13;0.40;;;;;;;23.58;38.99;102001.56;16145928;19;129499;-57
2022/07/04 07:26:25;;;;;;;0.30;0.25;;;;;;;23.59;39.14;101992.97;16143590;19;129764;-56
2022/07/04 07:31:50;;;;;;;2.58;0.40;;;;;;;23.61;39.31;102006.66;16139146;19;129811;-56
2022/07/04 07:37:12;;;;;;;1.40;0.32;;;;;;;23.61;39.04;102001.94;16144665;19;130076;-58
2022/07/04 07:42:34;;;;;;;0.75;0.30;;;;;;;23.63;39.02;102016.47;16143246;19;130937;-57
2022/07/04 07:47:56;;;;;;;2.03;0.43;;;;;;;23.64;39.24;102011.75;16143923;19;128982;-58
2022/07/04 07:53:17;;;;;;;1.27;0.30;;;;;;;23.64;39.18;102001.41;16148414;19;129311;-55
2022/07/04 07:58:39;;;;;;;1.00;0.30;;;;;;;23.65;38.98;102008.69;16147417;19;129308;-58
2022/07/04 08:09:43;;;;;;;1.05;0.30;;;;;;;23.64;39.36;102009.78;16141613;19;130807;-57
2022/07/04 08:15:06;;;;;;;2.28;0.30;;;;;;;23.65;39.41;102002.28;16143412;19;129844;-57
2022/07/04 08:20:28;;;;;;;0.70;0.30;;;;;;;23.65;39.24;102008.69;16137421;19;129163;-56
2022/07/04 08:25:50;;;;;;;1.20;0.30;;;;;;;23.65;39.20;102014.28;16140114;19;129576;-58
2022/07/04 08:31:11;;;;;;;0.55;0.10;;;;;;;23.65;39.35;102014.28;16136520;19;129247;-56
2022/07/04 08:36:53;;;;;;;0.68;0.30;;;;;;;23.64;39.35;102007.00;16141379;19;128902;-58
2022/07/04 08:42:20;;;;;;;0.82;0.20;;;;;;;23.64;39.29;102011.75;16137911;19;129816;-58
2022/07/04 08:47:43;;;;;;;0.55;0.20;;;;;;;23.64;39.39;102007.00;16141629;19;129384;-56
2022/07/04 08:53:08;;;;;;;1.92;0.35;;;;;;;23.64;39.71;102008.97;16140409;19;129566;-57
2022/07/04 08:58:31;;;;;;;0.93;0.30;;;;;;;23.63;39.21;102019.28;16141398;19;131647;-58
2022/07/04 09:03:54;;;;;;;0.73;0.30;;;;;;;23.62;39.76;102003.66;16143640;19;129885;-57
2022/07/04 09:09:18;;;;;;;1.73;0.43;;;;;;;23.61;39.41;102007.53;16140257;19;130861;-56
2022/07/04 09:14:40;;;;;;;2.60;0.60;;;;;;;23.61;39.45;102001.94;16136625;19;129437;-58
2022/07/04 09:20:14;;;;;;;1.65;0.43;;;;;;;23.60;39.39;101997.47;16143487;19;129389;-55
2022/07/04 09:25:35;;;;;;;1.27;0.30;;;;;;;23.57;39.40;101999.88;16140635;19;130239;-57
2022/07/04 09:30:58;;;;;;;1.02;0.20;;;;;;;23.55;39.44;101997.34;16140434;19;129070;-54
2022/07/04 09:36:23;;;;;;;0.88;0.25;;;;;;;23.54;39.58;102003.19;16143863;19;129554;-57
2022/07/04 09:41:57;;;;;;;1.60;0.30;;;;;;;23.53;39.58;102010.69;16140420;19;130133;-58
2022/07/04 09:47:29;;;;;;;1.15;0.22;;;;;;;23.51;39.58;102001.72;16140957;19;130024;-57
2022/07/04 09:52:58;;;;;;;1.42;0.45;;;;;;;23.50;39.58;102003.69;16140559;19;129380;-54
2022/07/04 09:58:20;;;;;;;3.35;0.50;;;;;;;23.49;39.32;102012.31;16139312;19;130280;-56
2022/07/04 10:03:42;;;;;;;3.60;0.30;;;;;;;23.46;39.27;102004.44;16135975;19;129476;-52
2022/07/04 10:09:12;;;;;;;3.92;0.50;;;;;;;23.47;39.68;102003.34;16137274;19;129401;-55
2022/07/04 10:14:34;;;;;;;7.05;0.73;;;;;;;23.46;39.50;102005.28;16138408;19;128947;-54
2022/07/04 10:19:56;;;;;;;4.40;0.60;;;;;;;23.46;39.82;102001.66;16138510;19;129831;-56
2022/07/04 10:25:18;;;;;;;3.50;0.60;;;;;;;23.46;39.71;101998.88;16138044;19;129900;-54
2022/07/04 10:30:41;;;;;;;6.18;0.70;;;;;;;23.45;39.78;101988.78;16130031;19;129846;-55
2022/07/04 10:36:14;;;;;;;3.05;0.50;;;;;;;23.44;40.13;101987.09;16134752;19;129822;-55
2022/07/04 10:41:56;;;;;;;5.78;1.13;;;;;;;23.46;40.28;101982.09;16135849;19;130085;-55
2022/07/04 10:47:29;;;;;;;6.03;0.70;;;;;;;23.46;40.18;101985.72;16150853;19;129575;-56
2022/07/04 10:53:10;;;;;;;2.83;0.70;;;;;;;23.49;40.05;101981.59;16146434;19;132661;-52
2022/07/04 10:58:40;;;;;;;5.18;1.00;;;;;;;23.49;40.12;101984.41;16136120;19;129140;-53
2022/07/04 11:04:02;;;;;;;4.47;0.68;;;;;;;23.50;40.35;101977.72;16144136;19;129108;-58
2022/07/04 11:09:25;;;;;;;6.15;0.63;;;;;;;23.51;40.39;101973.78;16147609;19;129136;-55
2022/07/04 11:14:48;;;;;;;5.32;0.93;;;;;;;23.51;40.10;101965.41;16148046;19;128963;-57
2022/07/04 11:20:11;;;;;;;2.92;0.57;;;;;;;23.53;40.17;101963.22;16144505;19;129321;-56
2022/07/04 11:25:33;;;;;;;4.13;0.60;;;;;;;23.55;40.13;101958.22;16147700;19;130075;-55
2022/07/04 11:30:57;;;;;;;2.60;0.52;;;;;;;23.56;40.21;101957.13;16144344;19;129262;-56
2022/07/04 11:36:20;;;;;;;7.90;0.60;;;;;;;23.57;40.16;101953.25;16146580;19;128825;-56
2022/07/04 11:47:32;;;;;;;4.18;0.70;;;;;;;23.59;40.50;101958.59;16146554;19;129082;-56
2022/07/04 11:52:56;;;;;;;1.92;0.57;;;;;;;23.58;40.14;101957.75;16142512;19;130194;-56
2022/07/04 11:58:42;;;;;;;2.13;0.60;;;;;;;23.62;40.27;101955.28;16145536;19;130230;-56
2022/07/04 12:04:20;;;;;;;3.40;0.93;;;;;;;23.63;40.18;101943.03;16145301;19;130180;-51
2022/07/04 12:09:44;;;;;;;10.98;0.85;;;;;;;23.62;39.93;101942.19;16143682;19;128967;-56
2022/07/04 12:15:07;;;;;;;5.18;1.05;;;;;;;23.63;40.24;101943.84;16145339;19;128916;-54
2022/07/04 12:20:29;;;;;;;4.68;0.65;;;;;;;23.63;39.89;101938.25;16145125;19;130074;-54
2022/07/04 12:25:51;;;;;;;2.70;0.60;;;;;;;23.63;40.32;101924.28;16145365;19;129438;-56
2022/07/04 12:31:14;;;;;;;4.43;0.98;;;;;;;23.64;40.17;101920.41;16138976;19;129247;-54
2022/07/04 12:36:54;;;;;;;3.75;0.75;;;;;;;23.64;40.39;101913.97;16140412;19;129503;-52
2022/07/04 12:42:19;;;;;;;6.40;0.88;;;;;;;23.62;40.28;101914.25;16140334;19;131627;-54
2022/07/04 12:47:48;;;;;;;2.20;0.50;;;;;;;23.63;40.63;101915.91;16144096;19;129259;-60
2022/07/04 12:53:10;;;;;;;3.80;0.82;;;;;;;23.62;40.30;101908.66;16137081;19;129580;-59
2022/07/04 12:58:34;;;;;;;4.72;0.63;;;;;;;23.62;40.41;101914.25;16143107;19;131175;-55
2022/07/04 13:03:57;;;;;;;2.15;0.60;;;;;;;23.61;40.42;101911.69;16140917;19;129421;-60
2022/07/04 13:09:19;;;;;;;2.03;0.60;;;;;;;23.61;40.38;101909.78;16140400;19;129688;-58
2022/07/04 13:14:41;;;;;;;8.50;0.77;;;;;;;23.64;40.58;101902.81;16140198;19;129507;-56
2022/07/04 13:20:04;;;;;;;4.97;0.77;;;;;;;23.62;40.57;101900.28;16142887;19;129691;-57
2022/07/04 13:25:26;;;;;;;5.15;0.80;;;;;;;23.63;40.37;101903.91;16142273;19;129977;-57
2022/07/04 13:30:48;;;;;;;3.80;1.00;;;;;;;23.61;40.35;101906.97;16136977;19;130258;-54
2022/07/04 13:36:10;;;;;;;2.10;0.60;;;;;;;23.61;40.18;101904.19;16141609;19;129615;-58
2022/07/04 13:41:33;;;;;;;2.60;0.70;;;;;;;23.61;40.29;101893.00;16140633;19;129844;-55
2022/07/04 13:46:58;;;;;;;5.20;0.93;;;;;;;23.63;40.00;101898.31;16140297;19;129128;-57
2022/07/04 13:52:20;;;;;;;1.25;0.60;;;;;;;23.66;39.90;101893.06;16136713;19;128926;-60
2022/07/04 13:57:42;;;;;;;7.45;0.95;;;;;;;23.68;39.87;101894.75;16135418;19;129259;-59
2022/07/04 14:03:05;;;;;;;2.17;0.70;;;;;;;23.71;39.60;101888.66;16140906;19;128971;-58
2022/07/04 14:08:26;;;;;;;4.55;0.85;;;;;;;23.73;39.54;101897.63;16136673;19;129554;-58
2022/07/04 14:13:48;;;;;;;1.67;0.57;;;;;;;23.75;39.56;101889.84;16138530;19;129291;-59
2022/07/04 14:19:10;;;;;;;1.38;0.65;;;;;;;23.77;39.52;101887.59;16138062;19;129412;-58
2022/07/04 14:24:32;;;;;;;2.05;0.60;;;;;;;23.77;39.55;101891.25;16138635;19;129382;-56
2022/07/04 14:29:54;;;;;;;1.15;0.52;;;;;;;23.79;39.31;101885.41;16132838;19;130143;-56
2022/07/04 14:35:16;;;;;;;2.25;0.50;;;;;;;23.81;39.21;101891.59;16133466;19;128953;-58
2022/07/04 14:40:38;;;;;;;3.25;0.60;;;;;;;23.81;39.08;101880.41;16139029;19;129472;-57
2022/07/04 14:46:00;;;;;;;2.72;0.65;;;;;;;23.82;39.19;101882.09;16139342;19;129023;-57
2022/07/04 14:51:23;;;;;;;3.13;0.77;;;;;;;23.82;39.51;101879.31;16133058;19;129762;-57
2022/07/04 14:56:45;;;;;;;1.27;0.60;;;;;;;23.80;39.13;101865.59;16135126;19;129847;-56
2022/07/04 15:02:06;;;;;;;1.52;0.68;;;;;;;23.79;38.89;101879.81;16136654;19;129125;-58
2022/07/04 15:07:29;;;;;;;1.92;0.68;;;;;;;23.78;39.08;101864.16;16136252;19;129624;-57
2022/07/04 15:12:51;;;;;;;5.10;0.68;;;;;;;23.78;38.95;101851.06;16128360;19;129119;-57
2022/07/04 15:18:13;;;;;;;3.35;0.70;;;;;;;23.77;38.71;101846.56;16132451;19;129447;-56
2022/07/04 15:29:17;;;;;;;2.55;0.85;;;;;;;23.75;38.51;101845.16;16142732;19;129302;-54
2022/07/04 15:34:39;;;;;;;2.50;0.80;;;;;;;23.73;38.78;101842.59;16148467;19;129156;-57
2022/07/04 15:40:20;;;;;;;2.42;0.80;;;;;;;23.73;38.98;101847.34;16150790;19;128963;-56
2022/07/04 15:45:42;;;;;;;4.15;0.98;;;;;;;23.73;38.92;101841.75;16150768;19;133074;-53
2022/07/04 15:51:04;;;;;;;4.22;1.27;;;;;;;23.73;38.83;101836.16;16158374;19;129151;-51
2022/07/04 15:56:26;;;;;;;6.00;1.20;;;;;;;23.73;38.92;101836.16;16146370;19;129347;-54
2022/07/04 16:01:48;;;;;;;5.22;1.20;;;;;;;23.75;38.84;101828.38;16149492;19;129208;-54
2022/07/04 16:07:10;;;;;;;4.07;0.90;;;;;;;23.75;38.91;101823.63;16147717;19;132014;-54
2022/07/04 16:12:37;;;;;;;7.28;1.17;;;;;;;23.78;38.72;101819.44;16143275;19;129783;-57
2022/07/04 16:17:59;;;;;;;18.90;2.53;;;;;;;23.79;39.27;101818.34;16144394;19;129610;-56
2022/07/04 16:23:21;;;;;;;122.85;31.95;;;;;;;23.79;39.20;101813.63;16144046;19;128972;-53
2022/07/04 16:28:43;;;;;;;139.48;34.80;;;;;;;23.82;39.22;101810.28;16145772;19;129458;-57
2022/07/04 16:34:04;;;;;;;120.80;34.50;;;;;;;23.83;39.46;101808.34;16141759;19;129510;-56
2022/07/04 16:39:26;;;;;;;111.38;33.03;;;;;;;23.87;39.50;101809.53;16142208;19;129145;-57
2022/07/04 16:44:48;;;;;;;101.43;29.00;;;;;;;23.87;39.48;101809.53;16139574;19;128841;-55
2022/07/04 16:50:10;;;;;;;91.65;26.67;;;;;;;23.86;39.48;101802.25;16140801;19;128920;-53
2022/07/04 16:55:32;;;;;;;79.60;24.05;;;;;;;23.87;39.39;101806.75;16139883;19;129447;-57
2022/07/04 17:00:54;;;;;;;61.45;20.15;;;;;;;23.87;39.60;101808.66;16143469;19;129451;-56
2022/07/04 17:06:16;;;;;;;50.83;16.85;;;;;;;23.85;39.78;101810.88;16140067;19;130716;-58
2022/07/04 17:11:38;;;;;;;47.05;15.18;;;;;;;23.85;40.01;101810.88;16138616;19;129132;-55
2022/07/04 17:17:00;;;;;;;47.97;15.52;;;;;;;23.86;39.39;101816.22;16139279;19;130379;-56
2022/07/04 17:22:22;;;;;;;44.35;14.18;;;;;;;23.90;39.69;101820.16;16142806;19;129061;-57
2022/07/04 17:27:44;;;;;;;33.65;11.82;;;;;;;23.91;39.86;101816.25;16139252;19;129296;-58
2022/07/04 17:33:06;;;;;;;31.75;10.75;;;;;;;23.90;39.70;101822.97;16136986;19;129693;-56
2022/07/04 17:38:28;;;;;;;25.55;8.93;;;;;;;23.91;39.55;101816.25;16141144;19;130232;-58
2022/07/04 17:43:50;;;;;;;28.63;9.13;;;;;;;23.91;39.62;101832.22;16135497;19;129468;-59
2022/07/04 17:49:13;;;;;;;17.98;7.05;;;;;;;23.92;39.61;101837.53;16134445;19;129054;-58
2022/07/04 17:54:34;;;;;;;15.50;6.55;;;;;;;23.91;39.17;101838.63;16132832;19;131685;-58
2022/07/04 18:00:13;;;;;;;14.13;5.32;;;;;;;23.90;39.44;101831.34;16138152;19;130006;-58
2022/07/04 18:05:38;;;;;;;13.55;5.03;;;;;;;23.88;39.46;101849.47;16136507;19;132081;-57
2022/07/04 18:10:59;;;;;;;19.42;4.50;;;;;;;23.85;39.26;101862.03;16134652;19;129642;-57
2022/07/04 18:16:21;;;;;;;15.50;3.67;;;;;;;23.81;39.71;101866.44;16138740;19;130077;-57
2022/07/04 18:21:43;;;;;;;30.05;3.92;;;;;;;23.79;39.64;101872.31;16133751;19;129419;-56
2022/07/04 18:27:05;;;;;;;46.67;4.20;;;;;;;23.80;39.71;101881.50;16122424;19;131013;-56
2022/07/04 18:32:27;;;;;;;21.35;3.13;;;;;;;23.80;39.18;101892.69;16132888;19;129338;-57
2022/07/04 18:37:49;;;;;;;22.80;2.70;;;;;;;23.76;39.51;101892.38;16131410;19;129477;-58
2022/07/04 18:43:26;;;;;;;12.35;2.00;;;;;;;23.76;39.08;101903.53;16133280;19;129884;-57
2022/07/04 18:48:48;;;;;;;13.68;1.90;;;;;;;23.76;39.23;101897.97;16134904;19;129044;-58
2022/07/04 18:54:10;;;;;;;13.55;1.88;;;;;;;23.74;39.30;101900.16;16130290;19;131695;-58
2022/07/04 18:59:32;;;;;;;8.90;1.30;;;;;;;23.74;38.77;101905.75;16135622;19;128997;-58
2022/07/04 19:04:53;;;;;;;5.05;1.30;;;;;;;23.74;38.94;101916.09;16147072;19;128978;-58
2022/07/04 19:10:15;;;;;;;5.93;1.30;;;;;;;23.74;38.64;101918.88;16147885;19;130210;-57
2022/07/04 19:15:39;;;;;;;4.90;1.10;;;;;;;23.74;38.25;101916.94;16150565;19;129433;-57
2022/07/04 19:21:01;;;;;;;6.75;1.38;;;;;;;23.71;38.63;101913.81;16149793;19;129275;-57
2022/07/04 19:26:23;;;;;;;20.00;1.30;;;;;;;23.71;38.27;101924.97;16148157;19;130353;-58
2022/07/04 19:31:45;;;;;;;21.65;1.85;;;;;;;23.71;38.35;101928.59;16146913;19;128975;-58
2022/07/04 19:37:07;;;;;;;15.57;2.28;;;;;;;23.71;38.33;101933.34;16147501;19;130092;-56
2022/07/04 19:42:33;;;;;;;20.55;1.80;;;;;;;23.71;38.68;101936.97;16145011;19;129846;-55
2022/07/04 19:47:54;;;;;;;23.33;1.80;;;;;;;23.71;38.88;101944.53;16147847;19;129157;-58
2022/07/04 19:53:17;;;;;;;21.20;2.05;;;;;;;23.73;38.93;101947.94;16142065;19;129398;-56
2022/07/04 19:58:38;;;;;;;11.23;1.83;;;;;;;23.75;39.36;101965.28;16143545;19;128775;-54
2022/07/04 20:04:00;;;;;;;22.75;2.00;;;;;;;23.76;39.05;101966.94;16144225;19;129696;-55
2022/07/04 20:09:22;;;;;;;28.58;2.28;;;;;;;23.80;39.43;101968.13;16148306;19;131813;-53
2022/07/04 20:14:47;;;;;;;15.73;1.92;;;;;;;23.79;38.80;101970.09;16140056;19;130051;-53
2022/07/04 20:20:09;;;;;;;11.65;1.40;;;;;;;23.80;39.23;101980.19;16144901;19;129984;-55
2022/07/04 20:25:33;;;;;;;42.47;2.88;;;;;;;23.80;39.02;101990.50;16137311;19;130066;-59
2022/07/04 20:30:55;;;;;;;33.72;2.25;;;;;;;23.74;39.43;102000.75;16138348;19;129703;-56
2022/07/04 20:36:17;;;;;;;24.20;1.92;;;;;;;23.70;39.36;101996.75;16133294;19;130089;-55
2022/07/04 20:41:38;;;;;;;23.40;2.03;;;;;;;23.65;39.43;102005.91;16138742;19;131316;-54
2022/07/04 20:47:00;;;;;;;15.52;1.08;;;;;;;23.63;39.11;102005.31;16139240;19;131850;-59
2022/07/04 20:52:23;;;;;;;22.38;2.10;;;;;;;23.60;39.48;102017.00;16134932;19;130128;-55
2022/07/04 20:57:45;;;;;;;20.08;2.17;;;;;;;23.59;39.22;102032.06;16131635;19;130134;-56
2022/07/04 21:03:08;;;;;;;14.57;1.50;;;;;;;23.57;39.43;102041.78;16135060;19;131795;-56
2022/07/04 21:08:30;;;;;;;10.32;1.63;;;;;;;23.56;39.35;102040.09;16139112;19;130640;-58
2022/07/04 21:13:52;;;;;;;7.75;1.25;;;;;;;23.53;39.28;102041.44;16135620;19;129394;-58
2022/07/04 21:19:14;;;;;;;6.75;1.30;;;;;;;23.51;39.39;102052.00;16140059;19;130870;-53
2022/07/04 21:24:36;;;;;;;3.78;0.85;;;;;;;23.51;39.26;102049.22;16135337;19;130951;-57
2022/07/04 21:29:57;;;;;;;7.65;1.00;;;;;;;23.50;39.43;102050.34;16134757;19;129604;-56
2022/07/04 21:35:19;;;;;;;7.90;1.13;;;;;;;23.48;39.38;102052.53;16131807;19;129414;-59
2022/07/04 21:40:46;;;;;;;5.70;0.88;;;;;;;23.47;39.34;102062.00;16134920;19;128957;-54
2022/07/04 21:46:08;;;;;;;3.25;0.65;;;;;;;23.44;39.36;102057.78;16137702;19;129615;-58
2022/07/04 21:51:30;;;;;;;3.40;0.60;;;;;;;23.43;39.40;102064.47;16136692;19;130229;-55
2022/07/04 21:56:52;;;;;;;5.80;0.65;;;;;;;23.42;39.43;102065.56;16132671;19;129064;-57
2022/07/04 22:02:14;;;;;;;3.35;0.47;;;;;;;23.39;39.42;102066.03;16137861;19;129362;-54
2022/07/04 22:07:36;;;;;;;5.00;0.70;;;;;;;23.40;39.76;102072.47;16135419;19;131256;-57
2022/07/04 22:12:58;;;;;;;1.90;0.47;;;;;;;23.38;39.21;102069.09;16133465;19;129931;-58
2022/07/04 22:18:20;;;;;;;6.30;0.80;;;;;;;23.38;39.17;102083.06;16133689;19;130049;-55
2022/07/04 22:23:42;;;;;;;4.40;0.93;;;;;;;23.36;39.59;102077.72;16136488;19;129400;-57
2022/07/04 22:29:03;;;;;;;4.10;0.70;;;;;;;23.36;39.42;102083.28;16133623;19;129339;-54
2022/07/04 22:34:25;;;;;;;1.10;0.40;;;;;;;23.35;39.52;102085.25;16130256;19;129025;-55
2022/07/04 22:39:47;;;;;;;3.33;0.47;;;;;;;23.32;39.46;102088.53;16145221;19;129877;-58
2022/07/04 22:45:11;;;;;;;5.10;0.50;;;;;;;23.32;39.76;102094.13;16145126;19;129734;-57
2022/07/04 22:50:33;;;;;;;3.35;0.60;;;;;;;23.30;39.50;102087.94;16149601;19;129654;-56
2022/07/04 22:55:54;;;;;;;1.70;0.35;;;;;;;23.29;39.81;102083.44;16143301;19;129231;-56
2022/07/04 23:01:17;;;;;;;2.83;0.20;;;;;;;23.28;39.46;102081.75;16145566;19;129113;-55
2022/07/04 23:06:39;;;;;;;1.80;0.47;;;;;;;23.26;39.49;102083.97;16149133;19;130127;-56
2022/07/04 23:12:01;;;;;;;2.00;0.50;;;;;;;23.25;39.51;102087.88;16145421;19;129403;-56
2022/07/04 23:17:23;;;;;;;0.77;0.30;;;;;;;23.23;39.39;102084.47;16147081;19;130335;-54
2022/07/04 23:22:45;;;;;;;1.85;0.43;;;;;;;23.23;39.64;102087.25;16146473;19;131332;-55
2022/07/04 23:28:06;;;;;;;2.40;0.40;;;;;;;23.23;39.80;102094.78;16146265;19;130027;-57
2022/07/04 23:33:28;;;;;;;0.50;0.30;;;;;;;23.21;39.30;102086.66;16144210;19;130651;-56
2022/07/04 23:38:50;;;;;;;1.27;0.20;;;;;;;23.18;39.67;102088.00;16140899;19;129252;-58
2022/07/04 23:44:13;;;;;;;3.10;0.60;;;;;;;23.18;39.68;102087.16;16142672;19;129459;-58
2022/07/04 23:49:35;;;;;;;1.10;0.20;;;;;;;23.17;39.76;102085.44;16147445;19;129761;-57
2022/07/04 23:54:57;;;;;;;0.63;0.20;;;;;;;23.17;39.77;102082.66;16141634;19;129275;-56
